Observations for BERGAMO ORIO SERIO, Italy (LIME)

LIME 260450Z VRB02KT CAVOK 20/17 Q1018 NOSIG
LIME 260420Z 03002KT CAVOK 20/18 Q1018 NOSIG
LIME 260350Z 02004KT 360V060 9999 FEW090 20/18 Q1018 NOSIG  
LIME 260320Z 01003KT 9999 SCT090 20/17 Q1018 NOSIG  
LIME 260250Z 02004KT 9999 SCT090 20/18 Q1018 NOSIG  
LIME 260220Z 36003KT 9999 SCT090 21/17 Q1018 NOSIG  
LIME 260150Z 04003KT 010V100 9999 SCT090 21/18 Q1018 NOSIG  
LIME 260120Z 02004KT 9999 SCT090 21/17 Q1018 NOSIG  
LIME 260050Z 01005KT 9999 SCT090 21/17 Q1018 NOSIG  
LIME 260020Z 02004KT 9999 SCT090 21/17 Q1019 NOSIG  
LIME 252350Z 01005KT 9999 SCT070 21/17 Q1019 NOSIG  
LIME 252320Z 01005KT 9999 SCT070 22/17 Q1019 NOSIG  
LIME 252250Z 01005KT 9999 SCT070 22/18 Q1019 NOSIG  
LIME 252220Z 01006KT 9999 SCT060 22/17 Q1019 NOSIG  
LIME 252150Z 01005KT 9999 SCT060 22/17 Q1019 NOSIG  
LIME 252120Z 36005KT 9999 FEW050 BKN090 23/17 Q1019 NOSIG   
LIME 252050Z 36005KT 310V010 9999 -RA FEW040 BKN090 23/17 Q1019 NOSIG   
LIME 252020Z 01006KT 9999 FEW030 SCT080 23/17 Q1019 NOSIG   
LIME 251950Z 01007KT 9999 FEW030CB SCT080 23/18 Q1019 RETS NOSIG
LIME 251920Z 36006KT 330V030 9999 FEW025CB SCT090 23/18 Q1019 RETS NOSIG
LIME 251850Z 01005KT 9999 -TSRA FEW030CB SCT080 22/21 Q1018 NOSIG   
LIME 251820Z 01003KT 300V090 7000 -TSRA FEW030CB SCT060 22/22 Q1018 RERA NOSIG  
LIME 251750Z 36008KT 4000 TSRA SCT020CB SCT050 23/19 Q1018 NOSIG
LIME 251720Z 11009G22KT 040V170 9999 VCSH SCT030CB BKN055 26/16 Q1018 TEMPO TS  
LIME 251650Z 17007KT 150V210 9999 VCTS FEW030CB SCT055 29/17 Q1017 TEMPO TS 
LIME 251620Z 18005KT 090V210 9999 FEW040CB SCT060 29/16 Q1017 NOSIG 
LIME 251550Z VRB02KT 9999 FEW035TCU SCT070 30/16 Q1017 NOSIG
LIME 251520Z VRB02KT 9999 FEW035TCU SCT070 29/16 Q1017 NOSIG
LIME 251450Z 25004KT 210V280 9999 FEW060 29/18 Q1017 NOSIG  
LIME 251420Z 25005KT 210V350 9999 FEW035TCU SCT050 29/18 Q1017 NOSIG
LIME 251350Z 27005KT 230V320 9999 FEW035TCU SCT050 29/18 Q1017 NOSIG
LIME 251320Z VRB04KT 9999 FEW035TCU SCT050 29/18 Q1018 NOSIG
LIME 251250Z VRB05KT 9999 FEW050 29/18 Q1018 NOSIG  
LIME 251220Z VRB03KT 9999 FEW060 28/17 Q1018 NOSIG  
LIME 251150Z VRB04KT 9999 FEW060 28/18 Q1018 NOSIG  
LIME 251120Z 24005KT 200V280 9999 FEW040 28/18 Q1019 NOSIG  
LIME 251050Z VRB02KT 9999 FEW035 28/18 Q1019 NOSIG  
LIME 251020Z 29004KT 230V330 CAVOK 26/17 Q1019 NOSIG
LIME 250950Z 18003KT 110V230 CAVOK 26/17 Q1019 NOSIG
LIME 250920Z VRB03KT CAVOK 26/17 Q1019 NOSIG
LIME 250850Z 17004KT 110V220 CAVOK 25/17 Q1019 NOSIG
LIME 250820Z VRB02KT CAVOK 25/17 Q1019 NOSIG
LIME 250750Z VRB01KT CAVOK 24/17 Q1019 NOSIG
LIME 250720Z VRB01KT CAVOK 24/17 Q1019 NOSIG
LIME 250650Z VRB02KT CAVOK 22/18 Q1019 NOSIG
LIME 250620Z VRB02KT CAVOK 21/18 Q1019 NOSIG
LIME 250550Z VRB02KT CAVOK 20/18 Q1018 NOSIG
LIME 250520Z VRB02KT CAVOK 19/17 Q1018 NOSIG
LIME 250450Z VRB02KT 9999 FEW100 19/18 Q1018 NOSIG